createdAt,value
2022-11-03T06:05:42.671Z,12.50
2022-11-03T06:10:51.190Z,12.50
2022-11-03T06:16:04.985Z,12.60
2022-11-03T06:21:14.270Z,12.60
2022-11-03T06:26:21.528Z,12.50
2022-11-03T06:31:25.074Z,12.50
2022-11-03T06:36:31.575Z,12.60
2022-11-03T06:41:36.637Z,12.60
2022-11-03T06:46:38.398Z,12.60
2022-11-03T06:51:40.575Z,12.60
2022-11-03T06:56:42.520Z,12.60
2022-11-03T07:01:46.523Z,12.60
2022-11-03T07:06:52.987Z,12.70
2022-11-03T07:11:58.330Z,12.70
2022-11-03T07:17:02.949Z,12.70
2022-11-03T07:22:08.740Z,12.70
2022-11-03T07:27:38.718Z,12.70
2022-11-03T07:32:40.548Z,12.80
2022-11-03T07:37:42.477Z,12.80
2022-11-03T07:42:44.432Z,12.80
2022-11-03T07:47:46.215Z,12.90
2022-11-03T07:52:48.086Z,12.90
2022-11-03T07:57:49.893Z,13.00
2022-11-03T08:02:55.455Z,13.00
2022-11-03T08:07:57.277Z,13.00
2022-11-03T08:12:59.119Z,13.10
2022-11-03T08:18:00.930Z,13.10
2022-11-03T08:23:24.585Z,13.10
2022-11-03T08:28:25.122Z,13.20
2022-11-03T08:38:34.261Z,13.30
2022-11-03T08:43:36.110Z,13.30
2022-11-03T08:48:37.911Z,13.30
2022-11-03T08:53:40.382Z,13.40
2022-11-03T08:58:45.297Z,13.40
2022-11-03T09:03:47.226Z,13.50
2022-11-03T09:14:11.074Z,13.60
2022-11-03T09:19:12.865Z,13.60
2022-11-03T09:24:14.711Z,13.60
2022-11-03T09:29:16.494Z,13.70
2022-11-03T09:34:18.360Z,13.70
2022-11-03T09:39:20.221Z,13.80
2022-11-03T09:44:22.089Z,13.80
2022-11-03T09:49:23.968Z,13.80
2022-11-03T09:54:27.100Z,13.80
2022-11-03T09:59:30.415Z,13.90
2022-11-03T10:04:32.429Z,13.90
2022-11-03T10:09:34.520Z,13.90
2022-11-03T10:14:36.376Z,14.00
2022-11-03T10:19:38.203Z,14.00
2022-11-03T10:24:40.011Z,14.00
2022-11-03T10:29:43.734Z,14.10
2022-11-03T10:34:49.247Z,14.20
2022-11-03T10:39:55.514Z,14.20
2022-11-03T10:45:30.502Z,14.30
2022-11-03T10:50:32.356Z,14.40
2022-11-03T10:55:34.300Z,14.50
2022-11-03T11:00:36.170Z,14.50
2022-11-03T11:05:44.770Z,14.60
2022-11-03T11:10:46.768Z,14.70
2022-11-03T11:15:52.090Z,14.80
2022-11-03T11:20:54.582Z,14.80
2022-11-03T11:26:29.731Z,14.90
2022-11-03T11:31:35.785Z,15.00
2022-11-03T11:36:39.524Z,15.10
2022-11-03T11:42:13.419Z,15.20
2022-11-03T11:47:46.388Z,15.30
2022-11-03T11:52:58.926Z,15.30
2022-11-03T11:58:05.179Z,15.40
2022-11-03T12:03:07.668Z,15.50
2022-11-03T12:08:21.105Z,15.50
2022-11-03T12:13:44.951Z,15.60
2022-11-03T12:18:50.518Z,15.60
2022-11-03T12:23:55.115Z,15.70
2022-11-03T12:28:57.191Z,15.80
2022-11-03T12:33:59.323Z,15.90
2022-11-03T12:39:02.705Z,16.00
2022-11-03T12:44:08.098Z,16.00
2022-11-03T12:49:10.000Z,16.10
2022-11-03T12:54:11.934Z,16.10
2022-11-03T12:59:13.966Z,16.10
2022-11-03T13:04:16.047Z,16.10
2022-11-03T13:09:17.900Z,16.00
2022-11-03T13:14:20.045Z,16.00
2022-11-03T13:19:21.991Z,16.00
2022-11-03T13:24:23.792Z,16.00
2022-11-03T13:29:25.567Z,16.00
2022-11-03T13:34:27.346Z,16.00
2022-11-03T13:39:29.183Z,15.90
2022-11-03T13:44:30.975Z,15.90
2022-11-03T13:50:07.845Z,15.90
2022-11-03T14:00:17.075Z,15.70
2022-11-03T14:05:18.974Z,15.70
2022-11-03T14:10:21.070Z,15.70
2022-11-03T14:15:22.878Z,15.60
2022-11-03T14:20:24.716Z,15.50
2022-11-03T14:25:26.552Z,15.50
2022-11-03T14:30:28.367Z,15.50
2022-11-03T14:35:30.174Z,15.30
2022-11-03T14:40:50.637Z,15.30
2022-11-03T14:45:52.586Z,15.20
2022-11-03T14:50:54.512Z,15.10
2022-11-03T14:55:56.331Z,15.00
2022-11-03T15:00:58.243Z,14.90
2022-11-03T15:06:00.169Z,14.90
2022-11-03T15:11:02.219Z,14.80
2022-11-03T15:16:05.250Z,14.70
2022-11-03T15:21:07.224Z,14.70
2022-11-03T15:26:09.574Z,14.60
2022-11-03T15:31:11.592Z,14.60
2022-11-03T15:36:13.594Z,14.60
2022-11-03T15:41:15.838Z,14.50
2022-11-03T15:46:20.020Z,14.50
2022-11-03T15:51:22.387Z,14.40
2022-11-03T15:56:24.163Z,14.40
2022-11-03T16:01:26.061Z,14.40
2022-11-03T16:06:53.904Z,14.30
2022-11-03T16:11:50.045Z,14.30
2022-11-03T16:16:51.892Z,14.30
2022-11-03T16:21:53.728Z,14.20
2022-11-03T16:26:55.634Z,14.20
2022-11-03T16:31:57.449Z,14.20
2022-11-03T16:37:00.771Z,14.10
2022-11-03T16:42:03.332Z,14.00
2022-11-03T16:47:05.488Z,13.90
2022-11-03T16:52:09.019Z,13.80
2022-11-03T16:57:12.353Z,13.70
2022-11-03T17:02:16.423Z,13.60
2022-11-03T17:07:18.756Z,13.50
2022-11-03T17:12:20.611Z,13.50
2022-11-03T17:17:22.439Z,13.40
2022-11-03T17:22:24.500Z,13.30
2022-11-03T17:27:42.926Z,13.20
2022-11-03T17:32:44.839Z,13.20
2022-11-03T17:37:52.031Z,13.10
2022-11-03T17:42:53.962Z,13.10
2022-11-03T17:48:04.464Z,13.10
2022-11-03T17:53:18.856Z,13.00
2022-11-03T17:58:31.988Z,13.00
2022-11-03T18:03:36.077Z,12.90
2022-11-03T18:08:40.712Z,12.90
2022-11-03T18:13:42.814Z,12.90
2022-11-03T18:18:45.598Z,12.90
2022-11-03T18:23:47.607Z,12.80
2022-11-03T18:28:50.437Z,12.70
2022-11-03T18:33:53.762Z,12.70
2022-11-03T18:38:56.945Z,12.70
